sensor_id;sensor_type;location;lat;lon;timestamp;noise_LAeq;noise_LA_min;noise_LA_max;noise_LA01;noise_LA95
75249;Laerm;63845;55.688;37.578;2023-06-10T00:01:19;61.69;58.16;65.40;;
75249;Laerm;63845;55.688;37.578;2023-06-10T00:03:44;62.08;57.97;66.64;;
75249;Laerm;63845;55.688;37.578;2023-06-10T00:06:10;61.43;57.94;65.13;;
75249;Laerm;63845;55.688;37.578;2023-06-10T00:08:35;61.77;58.71;66.46;;
75249;Laerm;63845;55.688;37.578;2023-06-10T00:11:02;62.07;56.14;69.09;;
75249;Laerm;63845;55.688;37.578;2023-06-10T00:13:28;63.91;60.29;70.77;;
75249;Laerm;63845;55.688;37.578;2023-06-10T00:15:53;64.17;61.04;69.41;;
75249;Laerm;63845;55.688;37.578;2023-06-10T00:18:19;62.73;58.41;75.07;;
75249;Laerm;63845;55.688;37.578;2023-06-10T00:20:47;65.64;60.04;81.23;;
75249;Laerm;63845;55.688;37.578;2023-06-10T00:23:14;62.34;57.92;71.96;;
75249;Laerm;63845;55.688;37.578;2023-06-10T00:25:39;61.71;57.09;66.39;;
75249;Laerm;63845;55.688;37.578;2023-06-10T00:28:05;62.09;55.44;77.95;;
75249;Laerm;63845;55.688;37.578;2023-06-10T00:30:30;58.48;53.39;68.44;;
75249;Laerm;63845;55.688;37.578;2023-06-10T00:32:56;59.14;53.85;63.25;;
75249;Laerm;63845;55.688;37.578;2023-06-10T00:35:21;60.70;56.58;65.62;;
75249;Laerm;63845;55.688;37.578;2023-06-10T00:37:47;59.11;54.21;64.94;;
75249;Laerm;63845;55.688;37.578;2023-06-10T00:40:12;65.86;56.52;71.78;;
75249;Laerm;63845;55.688;37.578;2023-06-10T00:42:38;65.19;55.15;72.94;;
75249;Laerm;63845;55.688;37.578;2023-06-10T00:45:04;64.14;59.36;76.80;;
75249;Laerm;63845;55.688;37.578;2023-06-10T00:47:30;63.04;57.41;75.01;;
75249;Laerm;63845;55.688;37.578;2023-06-10T00:49:56;64.01;60.27;71.40;;
75249;Laerm;63845;55.688;37.578;2023-06-10T00:52:22;63.14;57.97;73.29;;
75249;Laerm;63845;55.688;37.578;2023-06-10T00:54:51;63.66;59.17;75.08;;
75249;Laerm;63845;55.688;37.578;2023-06-10T00:57:16;63.38;58.95;74.02;;
75249;Laerm;63845;55.688;37.578;2023-06-10T00:59:44;63.71;57.95;79.00;;
75249;Laerm;63845;55.688;37.578;2023-06-10T01:02:11;64.28;59.84;76.85;;
75249;Laerm;63845;55.688;37.578;2023-06-10T01:04:37;62.73;57.47;72.50;;
75249;Laerm;63845;55.688;37.578;2023-06-10T01:07:12;61.99;58.17;79.25;;
75249;Laerm;63845;55.688;37.578;2023-06-10T01:10:04;62.82;58.70;77.36;;
75249;Laerm;63845;55.688;37.578;2023-06-10T01:12:49;63.63;59.76;68.53;;
75249;Laerm;63845;55.688;37.578;2023-06-10T01:15:18;62.43;57.34;75.16;;
75249;Laerm;63845;55.688;37.578;2023-06-10T01:20:24;63.10;57.04;75.34;;
75249;Laerm;63845;55.688;37.578;2023-06-10T01:22:52;62.75;56.93;83.55;;
75249;Laerm;63845;55.688;37.578;2023-06-10T01:25:19;62.59;58.63;69.24;;
75249;Laerm;63845;55.688;37.578;2023-06-10T01:27:46;62.31;57.19;71.10;;
75249;Laerm;63845;55.688;37.578;2023-06-10T01:30:22;63.11;58.62;66.48;;
75249;Laerm;63845;55.688;37.578;2023-06-10T01:32:55;62.06;58.24;66.84;;
75249;Laerm;63845;55.688;37.578;2023-06-10T01:35:24;63.11;58.63;68.70;;
75249;Laerm;63845;55.688;37.578;2023-06-10T01:37:53;63.04;59.68;67.50;;
75249;Laerm;63845;55.688;37.578;2023-06-10T01:40:20;63.56;60.29;67.24;;
75249;Laerm;63845;55.688;37.578;2023-06-10T01:42:46;63.90;60.13;69.42;;
75249;Laerm;63845;55.688;37.578;2023-06-10T01:45:12;63.61;56.55;67.83;;
75249;Laerm;63845;55.688;37.578;2023-06-10T01:47:37;61.88;55.88;68.89;;
75249;Laerm;63845;55.688;37.578;2023-06-10T01:50:03;62.87;55.03;73.89;;
75249;Laerm;63845;55.688;37.578;2023-06-10T01:52:29;60.71;55.22;68.33;;
75249;Laerm;63845;55.688;37.578;2023-06-10T01:54:55;59.14;53.93;67.03;;
75249;Laerm;63845;55.688;37.578;2023-06-10T01:57:20;58.19;54.03;61.86;;
75249;Laerm;63845;55.688;37.578;2023-06-10T01:59:46;60.64;55.93;74.44;;
75249;Laerm;63845;55.688;37.578;2023-06-10T02:02:11;63.16;57.11;76.14;;
75249;Laerm;63845;55.688;37.578;2023-06-10T02:04:37;64.55;57.57;73.92;;
75249;Laerm;63845;55.688;37.578;2023-06-10T02:07:03;63.96;58.76;72.25;;
75249;Laerm;63845;55.688;37.578;2023-06-10T02:09:29;62.47;55.57;70.27;;
75249;Laerm;63845;55.688;37.578;2023-06-10T02:11:54;63.30;59.55;69.27;;
75249;Laerm;63845;55.688;37.578;2023-06-10T02:14:20;62.71;56.12;76.65;;
75249;Laerm;63845;55.688;37.578;2023-06-10T02:16:46;61.38;57.61;66.22;;
75249;Laerm;63845;55.688;37.578;2023-06-10T02:19:12;63.77;59.09;76.39;;
75249;Laerm;63845;55.688;37.578;2023-06-10T02:21:38;63.69;58.76;68.23;;
75249;Laerm;63845;55.688;37.578;2023-06-10T02:24:04;63.06;59.58;68.55;;
75249;Laerm;63845;55.688;37.578;2023-06-10T02:26:29;63.24;59.43;69.22;;
75249;Laerm;63845;55.688;37.578;2023-06-10T02:28:55;63.85;59.71;68.33;;
75249;Laerm;63845;55.688;37.578;2023-06-10T02:31:20;64.00;59.79;71.58;;
75249;Laerm;63845;55.688;37.578;2023-06-10T02:33:46;63.84;59.84;74.40;;
75249;Laerm;63845;55.688;37.578;2023-06-10T02:36:12;63.59;59.48;67.23;;
75249;Laerm;63845;55.688;37.578;2023-06-10T02:38:41;64.37;61.06;77.73;;
75249;Laerm;63845;55.688;37.578;2023-06-10T02:41:06;65.92;61.13;71.86;;
75249;Laerm;63845;55.688;37.578;2023-06-10T02:43:33;64.56;60.25;70.00;;
75249;Laerm;63845;55.688;37.578;2023-06-10T02:45:58;63.55;58.53;67.66;;
75249;Laerm;63845;55.688;37.578;2023-06-10T02:48:24;61.44;54.82;65.97;;
75249;Laerm;63845;55.688;37.578;2023-06-10T02:50:50;64.96;57.90;72.78;;
75249;Laerm;63845;55.688;37.578;2023-06-10T02:53:15;63.16;55.15;73.74;;
75249;Laerm;63845;55.688;37.578;2023-06-10T02:55:41;61.03;55.07;72.20;;
75249;Laerm;63845;55.688;37.578;2023-06-10T02:58:06;59.93;54.91;67.65;;
75249;Laerm;63845;55.688;37.578;2023-06-10T03:00:32;60.41;56.76;64.84;;
75249;Laerm;63845;55.688;37.578;2023-06-10T03:02:58;61.54;55.67;81.53;;
75249;Laerm;63845;55.688;37.578;2023-06-10T03:05:25;61.20;56.03;73.27;;
75249;Laerm;63845;55.688;37.578;2023-06-10T03:07:51;61.61;56.35;77.94;;
75249;Laerm;63845;55.688;37.578;2023-06-10T03:10:16;60.27;54.70;77.59;;
75249;Laerm;63845;55.688;37.578;2023-06-10T03:12:42;60.73;56.19;68.70;;
75249;Laerm;63845;55.688;37.578;2023-06-10T03:15:07;62.17;56.73;83.95;;
75249;Laerm;63845;55.688;37.578;2023-06-10T03:17:33;61.83;57.02;69.38;;
75249;Laerm;63845;55.688;37.578;2023-06-10T03:19:58;62.97;55.94;69.77;;
75249;Laerm;63845;55.688;37.578;2023-06-10T03:22:24;62.98;55.23;83.58;;
75249;Laerm;63845;55.688;37.578;2023-06-10T03:24:49;59.54;55.18;70.17;;
75249;Laerm;63845;55.688;37.578;2023-06-10T03:27:15;61.16;54.87;68.85;;
75249;Laerm;63845;55.688;37.578;2023-06-10T03:29:41;61.05;53.95;70.97;;
75249;Laerm;63845;55.688;37.578;2023-06-10T03:32:07;60.25;54.18;67.38;;
75249;Laerm;63845;55.688;37.578;2023-06-10T03:34:33;62.82;58.20;67.09;;
75249;Laerm;63845;55.688;37.578;2023-06-10T03:36:59;63.65;60.04;67.17;;
75249;Laerm;63845;55.688;37.578;2023-06-10T03:39:25;61.39;55.28;67.71;;
75249;Laerm;63845;55.688;37.578;2023-06-10T03:41:51;59.44;55.16;74.26;;
75249;Laerm;63845;55.688;37.578;2023-06-10T03:44:16;61.65;55.55;77.36;;
75249;Laerm;63845;55.688;37.578;2023-06-10T03:46:42;61.46;54.21;73.32;;
75249;Laerm;63845;55.688;37.578;2023-06-10T03:49:07;60.86;54.28;66.03;;
75249;Laerm;63845;55.688;37.578;2023-06-10T03:51:35;62.56;57.66;66.81;;
75249;Laerm;63845;55.688;37.578;2023-06-10T03:54:01;62.35;57.83;67.54;;
75249;Laerm;63845;55.688;37.578;2023-06-10T03:56:26;62.59;57.96;71.92;;
75249;Laerm;63845;55.688;37.578;2023-06-10T03:58:53;63.08;57.41;72.38;;
75249;Laerm;63845;55.688;37.578;2023-06-10T04:01:19;60.66;53.93;69.11;;
75249;Laerm;63845;55.688;37.578;2023-06-10T04:03:46;59.75;53.96;67.73;;
75249;Laerm;63845;55.688;37.578;2023-06-10T04:06:14;59.90;54.43;67.98;;
75249;Laerm;63845;55.688;37.578;2023-06-10T04:08:41;62.76;56.26;69.01;;
75249;Laerm;63845;55.688;37.578;2023-06-10T04:11:08;63.35;59.41;71.79;;
75249;Laerm;63845;55.688;37.578;2023-06-10T04:13:40;64.01;56.64;71.85;;
75249;Laerm;63845;55.688;37.578;2023-06-10T04:16:08;59.99;55.06;65.55;;
75249;Laerm;63845;55.688;37.578;2023-06-10T04:18:33;61.53;54.07;69.63;;
75249;Laerm;63845;55.688;37.578;2023-06-10T04:20:59;61.92;55.29;70.08;;
75249;Laerm;63845;55.688;37.578;2023-06-10T04:23:24;63.35;55.72;73.35;;
75249;Laerm;63845;55.688;37.578;2023-06-10T04:25:49;60.91;55.61;65.73;;
75249;Laerm;63845;55.688;37.578;2023-06-10T04:28:15;61.12;55.80;66.84;;
75249;Laerm;63845;55.688;37.578;2023-06-10T04:30:40;62.95;55.96;77.04;;
75249;Laerm;63845;55.688;37.578;2023-06-10T04:33:07;62.82;57.08;75.80;;
75249;Laerm;63845;55.688;37.578;2023-06-10T04:35:34;61.06;55.16;70.29;;
75249;Laerm;63845;55.688;37.578;2023-06-10T04:37:59;64.48;59.58;71.68;;
75249;Laerm;63845;55.688;37.578;2023-06-10T04:40:25;64.63;60.93;76.75;;
75249;Laerm;63845;55.688;37.578;2023-06-10T04:42:50;62.68;57.11;75.29;;
75249;Laerm;63845;55.688;37.578;2023-06-10T04:45:16;61.50;55.97;69.43;;
75249;Laerm;63845;55.688;37.578;2023-06-10T04:47:41;61.56;55.05;67.78;;
75249;Laerm;63845;55.688;37.578;2023-06-10T04:50:07;62.31;58.11;71.51;;
75249;Laerm;63845;55.688;37.578;2023-06-10T04:52:32;61.25;54.62;72.93;;
75249;Laerm;63845;55.688;37.578;2023-06-10T04:54:58;62.06;56.45;69.06;;
75249;Laerm;63845;55.688;37.578;2023-06-10T04:57:28;63.14;54.94;70.23;;
75249;Laerm;63845;55.688;37.578;2023-06-10T04:59:54;63.37;56.42;71.24;;
75249;Laerm;63845;55.688;37.578;2023-06-10T05:02:19;60.83;54.25;71.18;;
75249;Laerm;63845;55.688;37.578;2023-06-10T05:04:45;60.72;54.87;70.06;;
75249;Laerm;63845;55.688;37.578;2023-06-10T05:07:10;63.10;58.06;84.42;;
75249;Laerm;63845;55.688;37.578;2023-06-10T05:09:42;64.85;61.73;76.08;;
75249;Laerm;63845;55.688;37.578;2023-06-10T05:12:08;66.00;62.60;77.00;;
75249;Laerm;63845;55.688;37.578;2023-06-10T05:14:37;65.79;60.35;77.87;;
75249;Laerm;63845;55.688;37.578;2023-06-10T05:17:02;67.33;62.82;77.46;;
75249;Laerm;63845;55.688;37.578;2023-06-10T05:19:28;65.48;60.08;75.86;;
75249;Laerm;63845;55.688;37.578;2023-06-10T05:21:53;65.44;60.29;77.71;;
75249;Laerm;63845;55.688;37.578;2023-06-10T05:24:18;66.38;61.57;77.83;;
75249;Laerm;63845;55.688;37.578;2023-06-10T05:26:44;66.93;61.62;76.54;;
75249;Laerm;63845;55.688;37.578;2023-06-10T05:29:10;66.26;62.44;75.45;;
75249;Laerm;63845;55.688;37.578;2023-06-10T05:31:35;68.89;61.15;94.79;;
75249;Laerm;63845;55.688;37.578;2023-06-10T05:34:10;67.17;62.74;74.47;;
75249;Laerm;63845;55.688;37.578;2023-06-10T05:36:35;66.72;62.95;80.77;;
75249;Laerm;63845;55.688;37.578;2023-06-10T05:39:01;66.49;62.16;75.77;;
75249;Laerm;63845;55.688;37.578;2023-06-10T05:41:32;66.35;61.87;82.07;;
75249;Laerm;63845;55.688;37.578;2023-06-10T05:43:57;65.41;59.61;76.03;;
75249;Laerm;63845;55.688;37.578;2023-06-10T05:46:43;65.57;60.49;85.83;;
75249;Laerm;63845;55.688;37.578;2023-06-10T05:49:17;65.36;60.51;76.27;;
75249;Laerm;63845;55.688;37.578;2023-06-10T05:51:43;64.04;59.88;75.19;;
75249;Laerm;63845;55.688;37.578;2023-06-10T05:54:08;66.60;60.07;79.94;;
75249;Laerm;63845;55.688;37.578;2023-06-10T05:56:34;69.42;61.82;93.38;;
75249;Laerm;63845;55.688;37.578;2023-06-10T05:58:59;75.45;61.20;99.97;;
75249;Laerm;63845;55.688;37.578;2023-06-10T06:01:25;66.90;63.10;81.09;;
75249;Laerm;63845;55.688;37.578;2023-06-10T06:03:50;67.39;62.03;91.93;;
75249;Laerm;63845;55.688;37.578;2023-06-10T06:06:16;65.72;61.83;85.87;;
75249;Laerm;63845;55.688;37.578;2023-06-10T06:08:41;66.77;61.92;82.32;;
75249;Laerm;63845;55.688;37.578;2023-06-10T06:11:10;66.30;62.17;80.43;;
75249;Laerm;63845;55.688;37.578;2023-06-10T06:13:35;65.02;61.21;73.81;;
75249;Laerm;63845;55.688;37.578;2023-06-10T06:16:00;65.71;61.34;73.76;;
75249;Laerm;63845;55.688;37.578;2023-06-10T06:18:28;65.49;61.10;76.17;;
75249;Laerm;63845;55.688;37.578;2023-06-10T06:20:54;65.81;60.97;79.84;;
75249;Laerm;63845;55.688;37.578;2023-06-10T06:23:19;66.19;61.81;77.52;;
75249;Laerm;63845;55.688;37.578;2023-06-10T06:25:45;65.62;58.85;77.87;;
75249;Laerm;63845;55.688;37.578;2023-06-10T06:28:10;64.65;60.29;74.52;;
75249;Laerm;63845;55.688;37.578;2023-06-10T06:30:35;65.24;59.91;83.27;;
75249;Laerm;63845;55.688;37.578;2023-06-10T06:33:01;65.65;59.74;79.79;;
75249;Laerm;63845;55.688;37.578;2023-06-10T06:35:33;66.08;60.19;80.13;;
75249;Laerm;63845;55.688;37.578;2023-06-10T06:37:59;67.00;62.39;72.69;;
75249;Laerm;63845;55.688;37.578;2023-06-10T06:40:25;67.35;61.31;78.33;;
75249;Laerm;63845;55.688;37.578;2023-06-10T06:42:50;65.32;60.56;74.63;;
75249;Laerm;63845;55.688;37.578;2023-06-10T06:45:15;66.58;60.80;78.04;;
75249;Laerm;63845;55.688;37.578;2023-06-10T06:47:41;65.47;60.39;73.63;;
75249;Laerm;63845;55.688;37.578;2023-06-10T06:50:09;65.44;60.55;73.49;;
75249;Laerm;63845;55.688;37.578;2023-06-10T06:52:35;66.62;61.31;80.70;;
75249;Laerm;63845;55.688;37.578;2023-06-10T06:55:00;66.55;61.28;79.63;;
75249;Laerm;63845;55.688;37.578;2023-06-10T06:57:26;65.62;60.71;76.89;;
75249;Laerm;63845;55.688;37.578;2023-06-10T06:59:59;65.02;59.83;78.33;;
75249;Laerm;63845;55.688;37.578;2023-06-10T07:02:44;66.15;59.91;84.43;;
75249;Laerm;63845;55.688;37.578;2023-06-10T07:05:10;64.88;60.33;73.37;;
75249;Laerm;63845;55.688;37.578;2023-06-10T07:07:35;64.21;59.18;83.37;;
75249;Laerm;63845;55.688;37.578;2023-06-10T07:10:01;65.63;59.28;83.17;;
75249;Laerm;63845;55.688;37.578;2023-06-10T07:12:50;65.28;58.24;78.99;;
75249;Laerm;63845;55.688;37.578;2023-06-10T07:15:16;63.98;60.15;69.61;;
75249;Laerm;63845;55.688;37.578;2023-06-10T07:17:44;64.25;60.60;79.06;;
75249;Laerm;63845;55.688;37.578;2023-06-10T07:20:10;66.11;59.46;71.92;;
75249;Laerm;63845;55.688;37.578;2023-06-10T07:22:36;63.93;59.54;74.57;;
75249;Laerm;63845;55.688;37.578;2023-06-10T07:25:01;64.98;60.07;75.99;;
75249;Laerm;63845;55.688;37.578;2023-06-10T07:27:28;64.92;59.87;72.39;;
75249;Laerm;63845;55.688;37.578;2023-06-10T07:29:54;64.86;58.72;75.26;;
75249;Laerm;63845;55.688;37.578;2023-06-10T07:32:19;64.17;58.72;77.73;;
75249;Laerm;63845;55.688;37.578;2023-06-10T07:34:49;64.39;59.36;73.81;;
75249;Laerm;63845;55.688;37.578;2023-06-10T07:37:15;65.66;59.74;78.81;;
75249;Laerm;63845;55.688;37.578;2023-06-10T07:39:40;66.07;60.42;84.26;;
75249;Laerm;63845;55.688;37.578;2023-06-10T07:42:07;65.88;61.87;73.34;;
75249;Laerm;63845;55.688;37.578;2023-06-10T07:44:33;66.47;61.69;76.59;;
75249;Laerm;63845;55.688;37.578;2023-06-10T07:46:58;66.27;62.66;72.50;;
75249;Laerm;63845;55.688;37.578;2023-06-10T07:49:24;66.14;60.83;72.45;;
75249;Laerm;63845;55.688;37.578;2023-06-10T07:51:50;65.69;61.83;76.25;;
75249;Laerm;63845;55.688;37.578;2023-06-10T07:54:15;66.17;61.89;80.79;;
75249;Laerm;63845;55.688;37.578;2023-06-10T07:56:41;66.10;62.36;71.20;;
75249;Laerm;63845;55.688;37.578;2023-06-10T07:59:06;66.70;60.58;75.89;;
75249;Laerm;63845;55.688;37.578;2023-06-10T08:01:32;65.98;61.06;74.87;;
75249;Laerm;63845;55.688;37.578;2023-06-10T08:03:58;64.88;60.47;74.77;;
75249;Laerm;63845;55.688;37.578;2023-06-10T08:06:23;69.63;60.63;96.69;;
75249;Laerm;63845;55.688;37.578;2023-06-10T08:08:49;65.45;61.88;73.51;;
75249;Laerm;63845;55.688;37.578;2023-06-10T08:11:14;66.07;62.10;83.64;;
75249;Laerm;63845;55.688;37.578;2023-06-10T08:13:40;66.44;61.55;74.74;;
75249;Laerm;63845;55.688;37.578;2023-06-10T08:16:05;67.73;63.55;79.63;;
75249;Laerm;63845;55.688;37.578;2023-06-10T08:18:31;69.16;64.37;78.95;;
75249;Laerm;63845;55.688;37.578;2023-06-10T08:20:57;68.10;63.49;78.13;;
75249;Laerm;63845;55.688;37.578;2023-06-10T08:23:22;68.19;63.50;86.59;;
75249;Laerm;63845;55.688;37.578;2023-06-10T08:25:57;67.64;63.31;83.39;;
75249;Laerm;63845;55.688;37.578;2023-06-10T08:28:28;66.31;62.78;80.04;;
75249;Laerm;63845;55.688;37.578;2023-06-10T08:30:53;66.89;63.20;76.75;;
75249;Laerm;63845;55.688;37.578;2023-06-10T08:33:22;67.32;62.82;72.76;;
75249;Laerm;63845;55.688;37.578;2023-06-10T08:35:48;67.85;61.82;90.05;;
75249;Laerm;63845;55.688;37.578;2023-06-10T08:38:13;68.01;62.77;83.15;;
75249;Laerm;63845;55.688;37.578;2023-06-10T08:40:39;67.62;61.73;74.20;;
75249;Laerm;63845;55.688;37.578;2023-06-10T08:43:10;65.59;60.06;75.10;;
75249;Laerm;63845;55.688;37.578;2023-06-10T08:45:42;66.07;62.24;74.23;;
75249;Laerm;63845;55.688;37.578;2023-06-10T08:48:13;67.08;62.75;78.53;;
75249;Laerm;63845;55.688;37.578;2023-06-10T08:50:42;65.17;61.00;77.24;;
75249;Laerm;63845;55.688;37.578;2023-06-10T08:53:08;66.78;61.01;80.81;;
75249;Laerm;63845;55.688;37.578;2023-06-10T08:55:42;67.28;63.31;73.22;;
75249;Laerm;63845;55.688;37.578;2023-06-10T08:58:07;67.38;62.99;78.14;;
75249;Laerm;63845;55.688;37.578;2023-06-10T09:00:34;68.03;62.11;80.77;;
75249;Laerm;63845;55.688;37.578;2023-06-10T09:02:59;67.04;61.42;76.45;;
75249;Laerm;63845;55.688;37.578;2023-06-10T09:05:26;64.51;58.59;74.28;;
75249;Laerm;63845;55.688;37.578;2023-06-10T09:07:53;66.29;58.81;83.69;;
75249;Laerm;63845;55.688;37.578;2023-06-10T09:10:19;65.51;59.70;80.92;;
75249;Laerm;63845;55.688;37.578;2023-06-10T09:12:48;64.34;57.49;77.68;;
75249;Laerm;63845;55.688;37.578;2023-06-10T09:15:52;62.99;59.09;70.50;;
75249;Laerm;63845;55.688;37.578;2023-06-10T09:18:48;64.26;58.18;79.09;;
75249;Laerm;63845;55.688;37.578;2023-06-10T09:21:43;62.63;56.01;70.82;;
75249;Laerm;63845;55.688;37.578;2023-06-10T09:24:18;63.32;57.07;71.09;;
75249;Laerm;63845;55.688;37.578;2023-06-10T09:26:44;64.35;59.72;80.64;;
75249;Laerm;63845;55.688;37.578;2023-06-10T09:29:31;64.98;59.87;70.93;;
75249;Laerm;63845;55.688;37.578;2023-06-10T09:31:56;65.50;61.79;71.04;;
75249;Laerm;63845;55.688;37.578;2023-06-10T09:34:31;66.65;59.96;75.54;;
75249;Laerm;63845;55.688;37.578;2023-06-10T09:37:31;67.02;62.80;79.69;;
75249;Laerm;63845;55.688;37.578;2023-06-10T09:40:10;66.40;61.39;76.07;;
75249;Laerm;63845;55.688;37.578;2023-06-10T09:45:51;66.25;60.18;79.78;;
75249;Laerm;63845;55.688;37.578;2023-06-10T09:51:55;65.72;61.25;76.39;;
75249;Laerm;63845;55.688;37.578;2023-06-10T09:54:35;66.40;59.36;79.42;;
75249;Laerm;63845;55.688;37.578;2023-06-10T09:57:07;65.90;61.44;72.93;;
75249;Laerm;63845;55.688;37.578;2023-06-10T09:59:45;65.75;60.19;77.98;;
75249;Laerm;63845;55.688;37.578;2023-06-10T10:02:17;65.04;59.09;75.52;;
75249;Laerm;63845;55.688;37.578;2023-06-10T10:04:48;65.82;61.74;74.74;;
75249;Laerm;63845;55.688;37.578;2023-06-10T10:07:23;65.09;61.10;73.15;;
75249;Laerm;63845;55.688;37.578;2023-06-10T10:09:48;65.66;61.74;72.93;;
75249;Laerm;63845;55.688;37.578;2023-06-10T10:12:17;66.81;61.01;86.47;;
75249;Laerm;63845;55.688;37.578;2023-06-10T10:14:46;65.32;60.42;84.38;;
75249;Laerm;63845;55.688;37.578;2023-06-10T10:17:14;64.87;60.89;77.62;;
75249;Laerm;63845;55.688;37.578;2023-06-10T10:19:53;65.32;60.92;75.84;;
75249;Laerm;63845;55.688;37.578;2023-06-10T10:22:57;65.61;61.62;75.68;;
75249;Laerm;63845;55.688;37.578;2023-06-10T10:25:26;67.22;60.58;80.51;;
75249;Laerm;63845;55.688;37.578;2023-06-10T10:28:17;65.27;61.47;76.70;;
75249;Laerm;63845;55.688;37.578;2023-06-10T10:37:53;65.06;60.14;76.40;;
75249;Laerm;63845;55.688;37.578;2023-06-10T10:41:15;64.90;59.44;72.90;;
75249;Laerm;63845;55.688;37.578;2023-06-10T10:43:50;65.85;60.09;77.41;;
75249;Laerm;63845;55.688;37.578;2023-06-10T10:46:17;65.74;60.55;85.22;;
75249;Laerm;63845;55.688;37.578;2023-06-10T10:48:44;64.35;60.02;74.65;;
75249;Laerm;63845;55.688;37.578;2023-06-10T10:51:10;63.99;58.82;73.60;;
75249;Laerm;63845;55.688;37.578;2023-06-10T10:53:39;65.84;58.24;76.76;;
75249;Laerm;63845;55.688;37.578;2023-06-10T10:56:12;68.68;59.57;79.93;;
75249;Laerm;63845;55.688;37.578;2023-06-10T10:58:38;63.90;58.16;82.24;;
75249;Laerm;63845;55.688;37.578;2023-06-10T11:01:14;65.03;57.99;76.31;;
75249;Laerm;63845;55.688;37.578;2023-06-10T11:03:46;63.87;58.96;68.45;;
75249;Laerm;63845;55.688;37.578;2023-06-10T11:06:16;64.50;59.02;74.66;;
75249;Laerm;63845;55.688;37.578;2023-06-10T11:11:24;64.96;58.95;83.31;;
75249;Laerm;63845;55.688;37.578;2023-06-10T11:16:27;64.95;60.18;73.58;;
75249;Laerm;63845;55.688;37.578;2023-06-10T11:18:54;64.81;60.72;75.30;;
75249;Laerm;63845;55.688;37.578;2023-06-10T11:21:20;66.96;61.87;82.80;;
75249;Laerm;63845;55.688;37.578;2023-06-10T11:23:45;66.34;62.18;72.33;;
75249;Laerm;63845;55.688;37.578;2023-06-10T11:26:19;66.22;63.00;74.33;;
75249;Laerm;63845;55.688;37.578;2023-06-10T11:31:28;66.09;61.55;74.43;;
75249;Laerm;63845;55.688;37.578;2023-06-10T11:34:04;64.64;60.37;76.87;;
75249;Laerm;63845;55.688;37.578;2023-06-10T11:36:33;64.80;60.88;74.65;;
75249;Laerm;63845;55.688;37.578;2023-06-10T11:39:01;65.07;60.27;75.09;;
75249;Laerm;63845;55.688;37.578;2023-06-10T11:41:28;62.79;57.38;74.11;;
75249;Laerm;63845;55.688;37.578;2023-06-10T11:43:55;62.83;57.64;72.75;;
75249;Laerm;63845;55.688;37.578;2023-06-10T11:46:23;65.25;58.69;78.94;;
75249;Laerm;63845;55.688;37.578;2023-06-10T11:48:56;63.98;60.14;71.15;;
75249;Laerm;63845;55.688;37.578;2023-06-10T11:51:22;65.10;58.14;84.71;;
75249;Laerm;63845;55.688;37.578;2023-06-10T11:53:50;66.87;61.65;80.36;;
75249;Laerm;63845;55.688;37.578;2023-06-10T11:56:29;65.26;61.27;79.35;;
75249;Laerm;63845;55.688;37.578;2023-06-10T11:58:57;65.24;58.78;81.58;;
75249;Laerm;63845;55.688;37.578;2023-06-10T12:01:25;66.00;62.25;73.96;;
75249;Laerm;63845;55.688;37.578;2023-06-10T12:04:02;64.99;60.24;74.58;;
75249;Laerm;63845;55.688;37.578;2023-06-10T12:06:43;65.44;59.14;74.72;;
75249;Laerm;63845;55.688;37.578;2023-06-10T12:11:43;63.31;58.75;73.80;;
75249;Laerm;63845;55.688;37.578;2023-06-10T12:14:09;63.90;58.50;78.75;;
75249;Laerm;63845;55.688;37.578;2023-06-10T12:16:37;64.51;59.28;74.28;;
75249;Laerm;63845;55.688;37.578;2023-06-10T12:19:04;65.23;60.52;76.40;;
75249;Laerm;63845;55.688;37.578;2023-06-10T12:21:32;65.45;60.80;80.04;;
75249;Laerm;63845;55.688;37.578;2023-06-10T12:24:04;66.15;58.21;81.99;;
75249;Laerm;63845;55.688;37.578;2023-06-10T12:26:43;63.40;57.74;73.19;;
75249;Laerm;63845;55.688;37.578;2023-06-10T12:29:18;64.09;59.95;76.00;;
75249;Laerm;63845;55.688;37.578;2023-06-10T12:31:55;65.20;59.93;79.23;;
75249;Laerm;63845;55.688;37.578;2023-06-10T12:34:39;66.08;58.14;80.78;;
75249;Laerm;63845;55.688;37.578;2023-06-10T12:37:10;64.17;59.39;78.00;;
75249;Laerm;63845;55.688;37.578;2023-06-10T12:39:39;64.82;61.01;72.73;;
75249;Laerm;63845;55.688;37.578;2023-06-10T12:42:13;64.19;60.43;76.47;;
75249;Laerm;63845;55.688;37.578;2023-06-10T12:44:40;68.43;61.18;79.70;;
75249;Laerm;63845;55.688;37.578;2023-06-10T12:47:12;67.05;61.87;80.15;;
75249;Laerm;63845;55.688;37.578;2023-06-10T12:49:40;66.87;61.74;77.61;;
75249;Laerm;63845;55.688;37.578;2023-06-10T12:52:32;65.87;61.01;84.50;;
75249;Laerm;63845;55.688;37.578;2023-06-10T12:55:36;65.76;58.90;76.63;;
75249;Laerm;63845;55.688;37.578;2023-06-10T12:58:01;66.84;62.88;78.88;;
75249;Laerm;63845;55.688;37.578;2023-06-10T13:00:27;68.18;63.75;82.60;;
75249;Laerm;63845;55.688;37.578;2023-06-10T13:02:59;66.63;61.75;77.65;;
75249;Laerm;63845;55.688;37.578;2023-06-10T13:05:26;65.26;60.25;80.10;;
75249;Laerm;63845;55.688;37.578;2023-06-10T13:07:52;64.15;60.05;71.61;;
75249;Laerm;63845;55.688;37.578;2023-06-10T13:10:18;68.59;60.91;87.48;;
75249;Laerm;63845;55.688;37.578;2023-06-10T13:12:45;63.79;59.07;71.08;;
75249;Laerm;63845;55.688;37.578;2023-06-10T13:15:12;63.10;57.98;71.51;;
75249;Laerm;63845;55.688;37.578;2023-06-10T13:17:38;64.51;60.31;69.88;;
75249;Laerm;63845;55.688;37.578;2023-06-10T13:20:07;65.60;60.87;73.79;;
75249;Laerm;63845;55.688;37.578;2023-06-10T13:22:34;65.74;60.92;81.66;;
75249;Laerm;63845;55.688;37.578;2023-06-10T13:25:05;65.66;61.64;75.31;;
75249;Laerm;63845;55.688;37.578;2023-06-10T13:27:35;66.09;61.49;82.75;;
75249;Laerm;63845;55.688;37.578;2023-06-10T13:30:05;66.97;61.69;84.62;;
75249;Laerm;63845;55.688;37.578;2023-06-10T13:32:31;66.16;61.96;73.46;;
75249;Laerm;63845;55.688;37.578;2023-06-10T13:35:03;66.60;62.11;73.47;;
75249;Laerm;63845;55.688;37.578;2023-06-10T13:37:29;67.69;61.44;83.30;;
75249;Laerm;63845;55.688;37.578;2023-06-10T13:39:55;67.59;62.74;81.91;;
75249;Laerm;63845;55.688;37.578;2023-06-10T13:42:33;66.85;62.56;82.98;;
75249;Laerm;63845;55.688;37.578;2023-06-10T13:45:01;65.98;61.36;82.81;;
75249;Laerm;63845;55.688;37.578;2023-06-10T13:47:26;66.82;63.29;74.28;;
75249;Laerm;63845;55.688;37.578;2023-06-10T13:49:52;65.37;60.55;71.27;;
75249;Laerm;63845;55.688;37.578;2023-06-10T13:52:17;65.73;59.91;75.35;;
75249;Laerm;63845;55.688;37.578;2023-06-10T13:54:43;66.95;59.88;83.89;;
75249;Laerm;63845;55.688;37.578;2023-06-10T13:57:08;67.18;59.26;88.47;;
75249;Laerm;63845;55.688;37.578;2023-06-10T13:59:35;64.17;59.32;74.16;;
75249;Laerm;63845;55.688;37.578;2023-06-10T14:02:00;64.74;60.28;71.57;;
75249;Laerm;63845;55.688;37.578;2023-06-10T14:04:30;64.91;58.57;86.13;;
75249;Laerm;63845;55.688;37.578;2023-06-10T14:06:55;63.51;58.83;70.77;;